• Join FlightAware (Why Join?)
  • Login
  • US Flag 
06:42AM EDT


 

Airport Tracker/Info


-or-


 

Live Flight TrackerFlight Track Log ✈ CSN6873 ✈ 10-Jul-2014 ✈ ZWWW / URC - ZWKC / KCA

Flight Track Log - Related Links

Times and Time Zones

All times are in EDT time to prevent confusion due to time zone crossing. See the CSN6873 flight status page for this flight to view local times or setup timezone preferences in your user account.

Time Position Orientation Groundspeed Altitude Reporting Facility
EDT Latitude Longitude Course Direction KTS MPH feet Rate Location/Type
09:23PM 43.8643 87.3796 238° Southwest  Level Estimated
09:24PM 43.8214 87.2851 238° Southwest  Level Estimated
09:25PM 43.7784 87.1907 238° Southwest  Level Estimated
09:26PM 43.7354 87.0964 238° Southwest  Level Estimated
09:27PM 43.6922 87.0023 238° Southwest  Level Estimated
09:28PM 43.6490 86.9083 238° Southwest  Level Estimated
09:29PM 43.5932 86.7873 238° Southwest  Level Estimated
09:30PM 43.5372 86.6666 237° Southwest  Level Estimated
09:31PM 43.4811 86.5460 237° Southwest  Level Estimated
09:32PM 43.4249 86.4257 237° Southwest  Level Estimated
09:33PM 43.3686 86.3056 237° Southwest  Level Estimated
09:34PM 43.3121 86.1858 237° Southwest  Level Estimated
09:35PM 43.2555 86.0661 237° Southwest  Level Estimated
09:36PM 43.1988 85.9467 237° Southwest  Level Estimated
09:37PM 43.1420 85.8275 237° Southwest  Level Estimated
09:38PM 43.0850 85.7085 237° Southwest  Level Estimated
09:39PM 43.0279 85.5898 237° Southwest  Level Estimated
09:40PM 42.9707 85.4712 237° Southwest  Level Estimated
09:41PM 42.9134 85.3529 237° Southwest  Level Estimated
09:42PM 42.8559 85.2348 236° Southwest  Level Estimated
09:43PM 42.7984 85.1169 236° Southwest  Level Estimated
09:44PM 42.7407 84.9993 236° Southwest  Level Estimated
09:45PM 42.6828 84.8819 236° Southwest  Level Estimated
09:46PM 42.6249 84.7646 236° Southwest  Level Estimated
09:47PM 42.5669 84.6476 236° Southwest  Level Estimated
09:48PM 42.5087 84.5308 236° Southwest  Level Estimated
09:49PM 42.4504 84.4143 236° Southwest  Level Estimated
09:50PM 42.3920 84.2979 236° Southwest  Level Estimated
09:51PM 42.3335 84.1818 236° Southwest  Level Estimated
09:52PM 42.2748 84.0659 236° Southwest  Level Estimated
09:53PM 42.2161 83.9502 236° Southwest  Level Estimated
09:54PM 42.1572 83.8347 236° Southwest  Level Estimated
09:55PM 42.0982 83.7194 235° Southwest  Level Estimated
09:56PM 42.0391 83.6044 235° Southwest  Level Estimated
09:57PM 41.9799 83.4895 235° Southwest  Level Estimated
09:58PM 41.9205 83.3749 235° Southwest  Level Estimated
09:59PM 41.8611 83.2605 235° Southwest  Level Estimated
10:00PM 41.8015 83.1463 235° Southwest  Level Estimated
10:01PM 41.7419 83.0323 235° Southwest  Level Estimated
10:02PM 41.7181 82.9869 235° Southwest  Level Estimated
10:03PM 41.7181 82.9869 North  Level Estimated
10:04PM 41.7181 82.9869 North  Level Estimated
10:05PM 41.7181 82.9869 North  Level Estimated
10:06PM 41.7181 82.9869 North  Level Estimated
10:07PM 41.7181 82.9869 North  Level Estimated
10:08PM 41.7181 82.9869 North  Level Estimated
10:09PM 41.7181 82.9869 North  Level Estimated
10:10PM 41.7181 82.9869 North  Level Estimated
10:11PM 41.7181 82.9869 North  Level Estimated
10:12PM 41.7181 82.9869 North  Level Estimated
10:13PM 41.7181 82.9869 North  Level Estimated
10:14PM 41.7181 82.9869 North  Level Estimated
10:15PM 41.7181 82.9869 North  Level Estimated
10:16PM 41.7181 82.9869 North  Level Estimated
10:17PM 41.7181 82.9869 North  Level Estimated
10:18PM 41.7181 82.9869 North  Level Estimated